Time;durP1;ratioP1;P1;durP2;ratioP2;P2;SDS_P1;SDS_P2;PMS_P1;PMS_P2;Temp;Humidity;BMP_temperature;BMP_pressure;BME280_temperature;BME280_humidity;BME280_pressure;Samples;Min_cycle;Max_cycle;Signal;HPM_P1;HPM_P2
2022/09/14 00:00:48;;;;;;;2.83;2.63;;;;;;;12.74;94.78;63317.53;5004664;28;20223;-74
2022/09/14 00:03:15;;;;;;;2.83;2.65;;;;;;;12.65;96.03;63307.66;5005308;28;20367;-75
2022/09/14 00:05:42;;;;;;;3.53;3.33;;;;;;;12.57;96.48;63296.81;5005007;28;20233;-76
2022/09/14 00:08:09;;;;;;;3.60;3.28;;;;;;;12.57;96.80;63294.78;5004742;28;20195;-75
2022/09/14 00:10:39;;;;;;;3.58;3.17;;;;;;;12.57;96.47;63302.44;5004109;28;20451;-74
2022/09/14 00:13:06;;;;;;;3.03;2.83;;;;;;;12.56;96.31;63296.28;5005338;28;20211;-76
2022/09/14 00:15:37;;;;;;;2.80;2.55;;;;;;;12.59;96.32;63301.97;5004612;28;20558;-74
2022/09/14 00:18:04;;;;;;;2.78;2.67;;;;;;;12.60;96.42;63297.38;5005387;28;20230;-76
2022/09/14 00:20:32;;;;;;;3.03;2.80;;;;;;;12.58;96.41;63303.47;5004524;28;20270;-75
2022/09/14 00:23:00;;;;;;;3.05;2.85;;;;;;;12.57;97.17;63294.78;5005300;28;20481;-76
2022/09/14 00:25:27;;;;;;;3.85;3.10;;;;;;;12.40;98.54;63279.72;5004137;28;20582;-74
2022/09/14 00:27:54;;;;;;;3.83;3.53;;;;;;;12.36;98.94;63272.47;5004821;28;20239;-74
2022/09/14 00:30:22;;;;;;;3.17;3.08;;;;;;;12.31;99.23;63274.97;5004171;28;20224;-76
2022/09/14 00:32:51;;;;;;;4.10;3.80;;;;;;;12.25;99.90;63263.66;5005494;28;20203;-74
2022/09/14 00:35:18;;;;;;;3.75;3.45;;;;;;;12.27;99.99;63265.72;5003813;28;20235;-76
2022/09/14 00:37:48;;;;;;;4.13;3.80;;;;;;;12.23;99.92;63262.09;5004334;28;20202;-75
2022/09/14 00:40:15;;;;;;;3.85;3.65;;;;;;;12.21;99.96;63264.59;5004175;28;20227;-76
2022/09/14 00:42:42;;;;;;;3.97;3.78;;;;;;;12.19;99.52;63259.97;5004167;28;20203;-76
2022/09/14 00:45:15;;;;;;;3.72;3.53;;;;;;;12.19;99.58;63255.38;5004351;28;20262;-75
2022/09/14 00:47:42;;;;;;;3.20;3.10;;;;;;;12.15;99.71;63256.34;5003725;28;20254;-76
2022/09/14 00:50:11;;;;;;;4.18;3.90;;;;;;;12.14;99.99;63252.75;5004757;28;20225;-79
2022/09/14 00:52:42;;;;;;;3.13;2.95;;;;;;;12.11;100.00;63249.66;5023377;28;20213;-74
2022/09/14 00:55:12;;;;;;;3.35;3.15;;;;;;;12.12;100.00;63253.22;5023738;28;20292;-74
2022/09/14 00:57:42;;;;;;;3.35;3.15;;;;;;;12.10;100.00;63248.59;5023903;28;20202;-73
2022/09/14 01:00:11;;;;;;;5.45;4.75;;;;;;;12.07;100.00;63244.97;5023527;28;20223;-74
2022/09/14 01:02:39;;;;;;;3.60;3.40;;;;;;;12.09;100.00;63245.03;5024328;28;20206;-73
2022/09/14 01:05:07;;;;;;;2.90;2.80;;;;;;;11.99;100.00;63239.78;5024133;28;20219;-74
2022/09/14 01:07:46;;;;;;;2.90;2.70;;;;;;;11.96;100.00;63231.03;5023692;28;20421;-75
2022/09/14 01:10:26;;;;;;;3.08;2.90;;;;;;;11.96;100.00;63239.19;5023078;28;20218;-75
2022/09/14 01:13:14;;;;;;;3.60;3.35;;;;;;;11.96;100.00;63233.59;5024069;28;20402;-74
2022/09/14 01:15:51;;;;;;;2.95;2.83;;;;;;;11.95;100.00;63233.06;5024254;28;20238;-73
2022/09/14 01:18:24;;;;;;;3.28;3.10;;;;;;;11.88;100.00;63230.38;5023529;28;20199;-74
2022/09/14 01:20:56;;;;;;;2.90;2.80;;;;;;;11.86;100.00;63220.66;5024043;28;20222;-74
2022/09/14 01:23:35;;;;;;;3.50;3.30;;;;;;;11.77;100.00;63213.91;5023711;28;20184;-73
2022/09/14 01:26:33;;;;;;;2.97;2.78;;;;;;;11.79;100.00;63215.97;5023573;28;20434;-74
2022/09/14 01:29:08;;;;;;;3.55;3.35;;;;;;;11.84;100.00;63219.09;5023515;28;20455;-75
2022/09/14 01:31:41;;;;;;;3.10;3.00;;;;;;;11.80;100.00;63220.09;5006655;28;20294;-76
2022/09/14 01:34:12;;;;;;;3.50;3.30;;;;;;;11.80;100.00;63217.53;5003398;28;20488;-76
2022/09/14 01:36:44;;;;;;;3.50;3.30;;;;;;;11.82;100.00;63213.97;5004145;28;20396;-74
2022/09/14 01:39:12;;;;;;;3.47;3.38;;;;;;;11.73;100.00;63212.81;5003530;28;20251;-73
2022/09/14 01:41:41;;;;;;;3.13;2.97;;;;;;;11.68;100.00;63205.09;5003242;28;20223;-74
2022/09/14 01:44:15;;;;;;;4.95;3.20;;;;;;;11.74;100.00;63210.78;5003664;28;20213;-77
2022/09/14 01:46:46;;;;;;;3.55;3.30;;;;;;;11.72;100.00;63211.28;5004229;28;20219;-75
2022/09/14 01:49:17;;;;;;;3.92;3.50;;;;;;;11.72;100.00;63211.78;5007384;28;20223;-77
2022/09/14 01:51:47;;;;;;;3.90;3.60;;;;;;;11.58;100.00;63192.66;5007817;28;20290;-76
2022/09/14 01:54:20;;;;;;;4.05;3.83;;;;;;;11.58;100.00;63194.69;5007635;28;20495;-75
2022/09/14 01:56:51;;;;;;;3.58;3.42;;;;;;;11.58;100.00;63195.22;5006909;28;20254;-76
2022/09/14 01:59:23;;;;;;;3.78;3.47;;;;;;;11.58;100.00;63195.22;5007888;28;20214;-77
2022/09/14 02:01:55;;;;;;;3.78;3.53;;;;;;;11.56;100.00;63195.19;5008022;28;20220;-74
2022/09/14 02:04:29;;;;;;;4.00;3.70;;;;;;;11.56;100.00;63190.09;5006921;28;20492;-77
2022/09/14 02:06:56;;;;;;;3.47;3.28;;;;;;;11.51;100.00;63190.53;5007687;28;20242;-75
2022/09/14 02:09:25;;;;;;;3.80;3.53;;;;;;;11.57;100.00;63196.22;5007671;28;20208;-78
2022/09/14 02:11:59;;;;;;;4.28;3.97;;;;;;;11.54;100.00;63191.06;5007033;28;20219;-74
2022/09/14 02:14:27;;;;;;;4.68;4.38;;;;;;;11.54;100.00;63193.13;5007086;28;20187;-76
2022/09/14 02:16:54;;;;;;;4.03;3.80;;;;;;;11.50;100.00;63184.38;5006483;28;20429;-75
2022/09/14 02:19:23;;;;;;;4.00;3.70;;;;;;;11.45;100.00;63181.25;5006105;28;20199;-75
2022/09/14 02:21:50;;;;;;;4.70;4.40;;;;;;;11.50;100.00;63191.53;5006715;28;20310;-75
2022/09/14 02:24:18;;;;;;;4.00;3.80;;;;;;;11.50;100.00;63181.31;5006312;28;20200;-75
2022/09/14 02:26:47;;;;;;;4.18;3.88;;;;;;;11.46;100.00;63182.78;5007034;28;20219;-74
2022/09/14 02:29:13;;;;;;;4.53;4.20;;;;;;;11.46;100.00;63180.25;5006265;28;20262;-74
2022/09/14 02:31:57;;;;;;;3.72;3.53;;;;;;;11.28;100.00;63161.09;5024494;28;20438;-75
2022/09/14 02:34:33;;;;;;;3.75;3.45;;;;;;;11.21;100.00;63153.84;5025765;28;20194;-74
2022/09/14 02:37:05;;;;;;;3.75;3.55;;;;;;;11.22;100.00;63157.41;5025723;28;20272;-74
2022/09/14 02:39:45;;;;;;;4.22;3.88;;;;;;;11.20;100.00;63155.34;5026915;28;20187;-73
2022/09/14 02:42:20;;;;;;;3.88;3.60;;;;;;;11.21;100.00;63156.91;5026227;28;20218;-74
2022/09/14 02:44:58;;;;;;;3.60;3.40;;;;;;;11.23;100.00;63161.50;5026058;28;20190;-73
2022/09/14 02:47:37;;;;;;;4.45;3.60;;;;;;;11.26;100.00;63166.66;5026246;28;20194;-76
2022/09/14 02:50:13;;;;;;;3.63;3.42;;;;;;;11.24;100.00;63157.47;5025850;28;20218;-76
2022/09/14 02:52:47;;;;;;;3.17;2.97;;;;;;;11.25;100.00;63161.03;5026062;28;20257;-75
2022/09/14 02:55:18;;;;;;;3.83;3.63;;;;;;;11.22;100.00;63157.41;5025366;28;20231;-73
2022/09/14 02:58:06;;;;;;;5.32;3.15;;;;;;;11.19;100.00;63154.84;5025400;28;20495;-74
2022/09/14 03:00:36;;;;;;;3.50;3.30;;;;;;;11.21;100.00;63162.00;5024869;28;20223;-72
2022/09/14 03:03:05;;;;;;;3.88;3.67;;;;;;;11.19;100.00;63149.75;5026000;28;20195;-75
2022/09/14 03:05:32;;;;;;;3.67;3.45;;;;;;;11.18;100.00;63153.28;5025297;28;20219;-74
2022/09/14 03:08:00;;;;;;;3.53;3.33;;;;;;;11.18;100.00;63153.78;5025155;28;20389;-74
2022/09/14 03:10:27;;;;;;;3.72;3.53;;;;;;;11.15;100.00;63150.69;5024977;28;20226;-73
2022/09/14 03:12:54;;;;;;;3.80;3.50;;;;;;;11.12;100.00;63147.06;5024702;28;20306;-76
2022/09/14 03:15:21;;;;;;;3.50;3.33;;;;;;;11.20;100.00;63155.84;5025112;28;20238;-75
2022/09/14 03:17:48;;;;;;;4.20;3.90;;;;;;;11.05;100.00;63145.44;5026701;28;20511;-75
2022/09/14 03:20:19;;;;;;;4.25;4.00;;;;;;;11.11;100.00;63146.03;5024329;28;20547;-76
2022/09/14 03:22:46;;;;;;;3.90;3.60;;;;;;;11.10;100.00;63148.06;5025223;28;20211;-75
2022/09/14 03:25:13;;;;;;;4.32;3.95;;;;;;;11.13;100.00;63151.16;5025080;28;20219;-74
2022/09/14 03:27:40;;;;;;;4.25;4.05;;;;;;;11.11;100.00;63146.03;5024929;28;20203;-73
2022/09/14 03:30:08;;;;;;;4.55;4.25;;;;;;;11.14;100.00;63149.13;5020449;28;20226;-76
2022/09/14 03:32:35;;;;;;;5.13;4.75;;;;;;;11.15;100.00;63147.59;5004689;28;20196;-75
2022/09/14 03:35:02;;;;;;;4.13;3.85;;;;;;;11.17;100.00;63157.34;5005008;28;20234;-73
2022/09/14 03:37:30;;;;;;;4.22;3.92;;;;;;;11.18;100.00;63153.78;5005025;28;20238;-73
2022/09/14 03:39:57;;;;;;;4.30;4.07;;;;;;;11.18;100.00;63150.72;5004890;28;20227;-75
2022/09/14 03:42:24;;;;;;;4.75;4.10;;;;;;;11.15;100.00;63148.13;5005720;28;20528;-74
2022/09/14 03:44:51;;;;;;;4.15;3.90;;;;;;;11.12;100.00;63144.50;5004840;28;20210;-73
2022/09/14 03:47:17;;;;;;;4.32;4.03;;;;;;;11.16;100.00;63151.72;5005173;28;20417;-75
2022/09/14 03:49:44;;;;;;;4.40;4.10;;;;;;;11.12;100.00;63147.59;5005060;28;20246;-74
2022/09/14 03:52:11;;;;;;;4.07;3.88;;;;;;;11.07;100.00;63144.94;5004411;28;20196;-76
2022/09/14 03:54:39;;;;;;;4.43;4.13;;;;;;;10.92;100.00;63121.25;5005025;28;20199;-74
2022/09/14 03:57:07;;;;;;;4.28;4.00;;;;;;;10.93;100.00;63127.91;5005327;28;20273;-76
2022/09/14 03:59:34;;;;;;;5.78;4.22;;;;;;;10.89;100.00;63123.25;5004684;28;20230;-74
2022/09/14 04:02:01;;;;;;;4.07;3.88;;;;;;;10.93;100.00;63125.34;5004008;28;20223;-75
2022/09/14 04:04:28;;;;;;;9.18;5.20;;;;;;;10.93;100.00;63127.91;5004450;28;20222;-74
2022/09/14 04:06:55;;;;;;;6.07;5.47;;;;;;;10.91;100.00;63125.84;5004661;28;20260;-74
2022/09/14 04:09:22;;;;;;;5.85;4.75;;;;;;;11.03;100.00;63135.19;5004677;28;20196;-76
2022/09/14 04:11:50;;;;;;;6.68;6.03;;;;;;;11.02;100.00;63134.16;5004139;28;20223;-72
2022/09/14 04:14:17;;;;;;;8.30;7.10;;;;;;;11.00;100.00;63135.16;5004462;28;20210;-74
2022/09/14 04:16:45;;;;;;;9.07;8.13;;;;;;;11.04;100.00;63138.78;5004248;28;20246;-72
2022/09/14 04:19:13;;;;;;;8.27;7.50;;;;;;;11.11;100.00;63143.97;5004922;28;20445;-73
2022/09/14 04:21:39;;;;;;;7.28;6.45;;;;;;;11.10;100.00;63144.97;5004025;28;20413;-72
2022/09/14 04:24:06;;;;;;;7.35;6.65;;;;;;;11.11;100.00;63149.09;5004504;28;20200;-72
2022/09/14 04:26:33;;;;;;;6.13;5.63;;;;;;;11.16;100.00;63151.72;5004549;28;20251;-74
2022/09/14 04:29:01;;;;;;;6.03;5.53;;;;;;;11.21;100.00;63153.84;5005017;28;20373;-73
2022/09/14 04:31:30;;;;;;;4.57;4.30;;;;;;;11.26;100.00;63159.00;5019647;28;20233;-72
2022/09/14 04:33:57;;;;;;;5.35;4.68;;;;;;;11.32;100.00;63167.78;5024034;28;20295;-74
2022/09/14 04:36:27;;;;;;;5.72;5.32;;;;;;;11.36;100.00;63169.38;5023582;28;20297;-76
2022/09/14 04:38:54;;;;;;;5.03;4.57;;;;;;;11.37;100.00;63176.00;5023829;28;20199;-74
2022/09/14 04:41:22;;;;;;;4.93;4.53;;;;;;;11.48;100.00;63186.91;5023251;28;20230;-73
2022/09/14 04:43:50;;;;;;;5.22;4.72;;;;;;;11.64;100.00;63198.41;5024123;28;20353;-73
2022/09/14 04:46:21;;;;;;;4.47;4.05;;;;;;;11.65;100.00;63199.41;5025281;28;20219;-73
2022/09/14 04:48:48;;;;;;;4.60;4.25;;;;;;;11.74;100.00;63216.41;5023915;28;20189;-73
2022/09/14 04:51:17;;;;;;;5.40;5.00;;;;;;;11.82;100.00;63219.59;5023279;28;20416;-76
2022/09/14 04:53:45;;;;;;;5.32;4.78;;;;;;;11.92;100.00;63227.41;5023298;28;20222;-73
2022/09/14 04:56:14;;;;;;;4.45;4.15;;;;;;;12.05;100.00;63240.88;5023073;28;20285;-74
2022/09/14 04:58:43;;;;;;;4.80;4.50;;;;;;;12.17;100.00;63255.88;5023536;28;20477;-73
2022/09/14 05:01:12;;;;;;;4.50;4.28;;;;;;;12.30;100.00;63271.38;5023078;28;20227;-74
2022/09/14 05:03:41;;;;;;;5.43;4.93;;;;;;;12.41;100.00;63280.75;5023094;28;20199;-76
2022/09/14 05:06:11;;;;;;;5.60;5.10;;;;;;;12.47;100.00;63284.41;5023010;28;20280;-74
2022/09/14 05:08:38;;;;;;;5.38;4.97;;;;;;;12.56;100.00;63296.28;5023252;28;20226;-74
2022/09/14 05:11:06;;;;;;;7.63;4.47;;;;;;;12.72;100.00;63312.88;5023548;28;20225;-75
2022/09/14 05:13:34;;;;;;;5.07;4.60;;;;;;;12.89;100.00;63329.50;5023137;28;20203;-74
2022/09/14 05:16:08;;;;;;;7.07;4.28;;;;;;;12.91;100.00;63331.56;5024075;28;20547;-75
2022/09/14 05:18:35;;;;;;;4.13;3.85;;;;;;;13.08;100.00;63346.66;5023250;28;20198;-73
2022/09/14 05:21:04;;;;;;;4.95;4.57;;;;;;;13.23;100.00;63359.66;5023716;28;20250;-74
2022/09/14 05:23:31;;;;;;;4.28;3.97;;;;;;;13.35;100.00;63380.31;5026914;28;20190;-74
2022/09/14 05:25:59;;;;;;;4.03;3.80;;;;;;;13.46;100.00;63386.59;5026677;28;20389;-75
2022/09/14 05:28:26;;;;;;;4.35;4.05;;;;;;;13.42;99.00;63390.13;5026867;28;20258;-74
2022/09/14 05:30:54;;;;;;;4.53;4.22;;;;;;;13.37;100.00;63382.38;5015278;28;20219;-74
2022/09/14 05:33:21;;;;;;;3.88;3.65;;;;;;;13.55;99.60;63395.94;5007660;28;20199;-75
2022/09/14 05:35:48;;;;;;;5.20;4.20;;;;;;;13.45;99.58;63390.16;5007384;28;20223;-73
2022/09/14 05:38:16;;;;;;;4.88;4.45;;;;;;;13.47;99.18;63389.66;5007299;28;20200;-73
2022/09/14 05:40:43;;;;;;;5.70;4.13;;;;;;;13.67;98.48;63407.88;5006668;28;20253;-74
2022/09/14 05:43:10;;;;;;;4.53;4.30;;;;;;;13.66;98.54;63406.84;5007428;28;20521;-75
2022/09/14 05:45:37;;;;;;;5.55;4.72;;;;;;;13.87;98.14;63429.13;5006583;28;20211;-75
2022/09/14 05:48:05;;;;;;;5.03;4.50;;;;;;;13.94;95.39;63438.47;5006580;28;20235;-73
2022/09/14 05:50:32;;;;;;;5.30;4.88;;;;;;;14.04;95.02;63451.41;5006554;28;20219;-74
2022/09/14 05:52:59;;;;;;;4.80;4.50;;;;;;;14.18;94.24;63462.84;5006392;28;20230;-75
2022/09/14 05:55:27;;;;;;;4.93;4.55;;;;;;;14.05;93.29;63449.38;5006422;28;20227;-73
2022/09/14 05:57:54;;;;;;;4.22;4.03;;;;;;;14.11;93.10;63461.22;5006486;28;20227;-74
2022/09/14 06:00:21;;;;;;;7.88;4.50;;;;;;;14.23;93.15;63468.56;5006393;28;20274;-73
2022/09/14 06:02:49;;;;;;;5.43;5.00;;;;;;;14.20;92.23;63468.03;5006312;28;20204;-73
2022/09/14 06:05:16;;;;;;;4.90;4.60;;;;;;;14.34;92.01;63476.94;5006151;28;20223;-73
2022/09/14 06:07:46;;;;;;;4.50;4.07;;;;;;;14.49;90.47;63495.06;5007793;28;20250;-75
2022/09/14 06:10:12;;;;;;;6.47;4.35;;;;;;;14.53;90.91;63496.66;5007100;28;20246;-74
2022/09/14 06:12:41;;;;;;;4.80;4.35;;;;;;;14.58;88.91;63504.41;5007197;28;20424;-75
2022/09/14 06:15:09;;;;;;;5.07;4.38;;;;;;;14.70;89.02;63516.88;5007000;28;20257;-72
2022/09/14 06:17:37;;;;;;;6.13;4.45;;;;;;;14.85;85.94;63530.41;5006631;28;20571;-74
2022/09/14 06:20:06;;;;;;;5.25;4.78;;;;;;;14.88;87.21;63533.00;5006768;28;20223;-74
2022/09/14 06:22:32;;;;;;;8.70;5.18;;;;;;;14.86;87.70;63531.44;5006252;28;20199;-74
2022/09/14 06:24:59;;;;;;;5.05;4.45;;;;;;;15.08;86.73;63558.94;5006392;28;20477;-73
2022/09/14 06:27:27;;;;;;;4.70;4.40;;;;;;;15.08;86.40;63559.44;5006937;28;20395;-74
2022/09/14 06:29:55;;;;;;;5.00;4.65;;;;;;;15.24;87.56;63572.97;5008941;28;20226;-73
2022/09/14 06:32:23;;;;;;;5.95;4.93;;;;;;;15.46;87.00;63592.78;5025566;28;20237;-73
2022/09/14 06:34:49;;;;;;;4.30;4.00;;;;;;;15.52;84.98;63604.66;5024632;28;20202;-74
2022/09/14 06:37:17;;;;;;;5.05;3.72;;;;;;;15.69;84.15;63617.22;5026032;28;20230;-73
2022/09/14 06:39:44;;;;;;;3.55;3.42;;;;;;;15.85;82.67;63633.31;5025975;28;20205;-74
2022/09/14 06:42:11;;;;;;;3.88;3.58;;;;;;;16.04;81.21;63653.59;5025683;28;20206;-73
2022/09/14 06:44:39;;;;;;;3.90;3.70;;;;;;;16.24;79.86;63676.44;5025457;28;20197;-73
2022/09/14 06:47:07;;;;;;;3.28;3.15;;;;;;;16.22;77.92;63671.28;5025304;28;20557;-74
2022/09/14 06:49:34;;;;;;;3.75;3.55;;;;;;;16.08;76.78;63657.75;5025385;28;20190;-74
2022/09/14 06:52:01;;;;;;;3.85;3.50;;;;;;;15.97;79.00;63648.38;5025203;28;20237;-75
2022/09/14 06:54:28;;;;;;;9.27;3.55;;;;;;;15.97;79.63;63648.38;5025220;28;20202;-74
2022/09/14 06:56:55;;;;;;;6.85;3.97;;;;;;;15.87;78.74;63638.50;5025277;28;20456;-72
2022/09/14 06:59:22;;;;;;;4.10;3.70;;;;;;;16.01;76.55;63653.03;5024715;28;20249;-74
2022/09/14 07:01:49;;;;;;;4.95;3.75;;;;;;;16.17;75.08;63669.69;5025549;28;20230;-74
2022/09/14 07:04:17;;;;;;;3.97;3.60;;;;;;;16.08;75.20;63664.97;5025858;28;20470;-74
2022/09/14 07:06:47;;;;;;;4.13;3.70;;;;;;;16.09;77.45;63663.94;5025159;28;20265;-74
2022/09/14 07:09:14;;;;;;;5.38;4.00;;;;;;;16.30;75.78;63682.16;5024878;28;20388;-75
2022/09/14 07:11:42;;;;;;;4.35;3.95;;;;;;;16.39;73.47;63691.53;5025226;28;20228;-73
2022/09/14 07:14:09;;;;;;;3.75;3.55;;;;;;;16.49;73.76;63699.91;5024512;28;20198;-75
2022/09/14 07:16:38;;;;;;;4.97;4.50;;;;;;;16.57;72.37;63710.78;5025854;28;20621;-75
2022/09/14 07:19:08;;;;;;;4.05;3.75;;;;;;;16.60;71.95;63713.41;5024951;28;20198;-75
2022/09/14 07:21:36;;;;;;;4.43;4.22;;;;;;;16.62;73.46;63721.13;5024268;28;20226;-74
2022/09/14 07:24:03;;;;;;;3.88;3.58;;;;;;;16.76;72.21;63735.72;5024709;28;20194;-74
2022/09/14 07:26:34;;;;;;;7.70;3.83;;;;;;;16.74;72.35;63728.47;5023800;28;20389;-73
2022/09/14 07:29:03;;;;;;;5.63;4.10;;;;;;;16.79;74.33;63733.19;5025147;28;20459;-74
2022/09/14 07:31:33;;;;;;;5.57;4.03;;;;;;;16.97;74.87;63751.91;5009125;28;20270;-76
2022/09/14 07:34:02;;;;;;;4.45;3.35;;;;;;;17.07;72.12;63765.41;5005764;28;20436;-73
2022/09/14 07:36:29;;;;;;;3.95;3.65;;;;;;;17.25;70.40;63781.56;5004507;28;20218;-74
2022/09/14 07:38:58;;;;;;;5.88;4.03;;;;;;;17.22;72.79;63777.94;5004702;28;20465;-73
2022/09/14 07:41:27;;;;;;;3.92;3.72;;;;;;;17.28;70.24;63789.84;5004510;28;20265;-73
2022/09/14 07:43:56;;;;;;;3.97;3.78;;;;;;;17.23;69.45;63778.97;5004757;28;20277;-74
2022/09/14 07:46:23;;;;;;;4.60;4.22;;;;;;;17.41;72.11;63797.72;5004662;28;20218;-74
2022/09/14 07:48:55;;;;;;;4.43;4.03;;;;;;;17.59;69.02;63821.09;5004618;28;20435;-74
2022/09/14 07:51:23;;;;;;;4.72;3.85;;;;;;;17.68;66.26;63828.41;5004704;28;20214;-73
2022/09/14 07:53:49;;;;;;;5.60;4.65;;;;;;;17.69;66.73;63826.38;5004431;28;20218;-72
2022/09/14 07:56:18;;;;;;;4.13;3.83;;;;;;;17.51;67.38;63807.63;5005082;28;20519;-74
2022/09/14 07:58:45;;;;;;;3.25;3.15;;;;;;;17.57;68.76;63811.28;5004441;28;20201;-73
2022/09/14 08:01:14;;;;;;;4.35;3.50;;;;;;;17.70;70.15;63827.94;5004691;28;20222;-73
2022/09/14 08:03:43;;;;;;;3.80;3.60;;;;;;;17.99;69.36;63860.72;5005195;28;20273;-74
2022/09/14 08:06:12;;;;;;;3.40;3.25;;;;;;;18.16;66.90;63872.72;5006098;28;20250;-74
2022/09/14 08:08:41;;;;;;;3.92;3.72;;;;;;;18.40;66.37;63902.91;5004990;28;20248;-74
2022/09/14 08:11:11;;;;;;;6.72;3.80;;;;;;;18.38;64.33;63898.75;5005445;28;20278;-73
2022/09/14 08:13:40;;;;;;;3.53;3.33;;;;;;;18.52;64.26;63912.84;5005683;28;20262;-74
2022/09/14 08:16:08;;;;;;;3.42;3.22;;;;;;;18.50;64.62;63912.81;5004869;28;20265;-74
2022/09/14 08:18:36;;;;;;;4.03;3.72;;;;;;;18.52;64.48;63918.00;5004821;28;20426;-74
2022/09/14 08:21:05;;;;;;;3.55;3.35;;;;;;;18.36;63.44;63893.59;5004453;28;20401;-73
2022/09/14 08:23:32;;;;;;;5.65;4.10;;;;;;;18.28;64.77;63888.34;5004463;28;20545;-73
2022/09/14 08:26:03;;;;;;;3.30;3.10;;;;;;;18.39;62.16;63904.97;5004567;28;20281;-73
2022/09/14 08:28:30;;;;;;;4.15;3.38;;;;;;;18.38;63.18;63898.22;5005108;28;20218;-74
2022/09/14 08:31:02;;;;;;;3.55;3.35;;;;;;;18.65;63.30;63928.97;5015493;28;20285;-74
2022/09/14 08:33:28;;;;;;;3.72;3.45;;;;;;;18.95;61.64;63959.72;5024163;28;20233;-73
2022/09/14 08:35:55;;;;;;;3.33;3.13;;;;;;;19.06;61.83;63966.56;5023579;28;20444;-73
2022/09/14 08:38:23;;;;;;;5.47;3.40;;;;;;;19.33;62.20;63999.88;5024082;28;20244;-73
2022/09/14 08:40:51;;;;;;;10.80;3.63;;;;;;;19.55;58.80;64022.31;5024649;28;20230;-73
2022/09/14 08:43:20;;;;;;;7.30;3.70;;;;;;;19.48;57.70;64012.44;5025016;28;20533;-76
2022/09/14 08:45:48;;;;;;;3.78;3.05;;;;;;;19.50;56.51;64012.44;5023640;28;20222;-76
2022/09/14 08:48:22;;;;;;;6.28;3.78;;;;;;;19.44;58.09;64011.38;5024357;28;20205;-75
2022/09/14 08:50:52;;;;;;;4.30;3.30;;;;;;;19.52;56.90;64017.13;5023620;28;20226;-74
2022/09/14 08:53:20;;;;;;;4.18;3.00;;;;;;;19.70;56.56;64032.78;5023901;28;20228;-76
2022/09/14 08:55:54;;;;;;;4.05;3.75;;;;;;;19.82;55.93;64047.34;5024700;28;20412;-75
2022/09/14 08:58:47;;;;;;;4.68;3.42;;;;;;;19.91;55.40;64062.44;5027059;28;20413;-74
2022/09/14 09:01:21;;;;;;;4.38;3.58;;;;;;;19.75;55.10;64038.00;5028305;28;20224;-74
2022/09/14 09:04:14;;;;;;;3.78;3.20;;;;;;;19.77;55.09;64042.16;5027570;28;20186;-73
2022/09/14 09:06:51;;;;;;;3.78;3.40;;;;;;;19.98;54.77;64067.16;5029022;28;20230;-74
2022/09/14 09:09:27;;;;;;;6.35;3.47;;;;;;;19.97;55.55;64063.00;5027475;28;20244;-75
2022/09/14 09:11:55;;;;;;;3.30;3.10;;;;;;;20.18;56.31;64087.53;5027341;28;20598;-74
2022/09/14 09:14:32;;;;;;;3.67;3.47;;;;;;;20.44;55.75;64112.06;5027475;28;20201;-75
2022/09/14 09:17:04;;;;;;;4.15;3.28;;;;;;;20.58;55.00;64129.28;5027582;28;20221;-76
2022/09/14 09:19:37;;;;;;;3.20;3.00;;;;;;;20.79;53.71;64151.19;5027548;28;20200;-74
2022/09/14 09:22:06;;;;;;;4.38;3.15;;;;;;;21.01;53.14;64174.19;5027909;28;20201;-75
2022/09/14 09:24:37;;;;;;;6.00;3.42;;;;;;;20.82;53.00;64151.22;5027361;28;20202;-76
2022/09/14 09:27:10;;;;;;;5.57;3.50;;;;;;;20.79;51.96;64151.19;5027348;28;20190;-74
2022/09/14 09:29:37;;;;;;;3.78;3.58;;;;;;;20.95;51.43;64162.22;5028099;28;20261;-74
2022/09/14 09:32:06;;;;;;;3.58;3.28;;;;;;;21.02;51.55;64177.31;5027476;28;20240;-74
2022/09/14 09:34:35;;;;;;;3.55;3.25;;;;;;;21.11;51.07;64184.09;5026628;28;20394;-74
2022/09/14 09:37:14;;;;;;;3.92;3.60;;;;;;;21.23;51.95;64194.03;5027683;28;20221;-74
2022/09/14 09:39:41;;;;;;;7.93;3.40;;;;;;;21.24;50.34;64198.22;5027231;28;20186;-74
2022/09/14 09:42:15;;;;;;;4.55;3.13;;;;;;;21.44;51.57;64218.56;5027289;28;20213;-75
2022/09/14 09:44:58;;;;;;;7.40;3.25;;;;;;;21.66;52.17;64236.91;5027228;28;20194;-78
2022/09/14 09:47:29;;;;;;;7.47;2.83;;;;;;;21.73;48.75;64246.28;5026730;28;20460;-76
2022/09/14 09:50:02;;;;;;;4.45;2.53;;;;;;;21.51;47.49;64225.88;5026525;28;20206;-72
2022/09/14 09:52:30;;;;;;;2.80;2.60;;;;;;;21.56;46.06;64229.03;5026400;28;20261;-76
2022/09/14 09:54:59;;;;;;;2.40;2.17;;;;;;;21.75;46.09;64256.66;5026494;28;20341;-75
2022/09/14 09:57:31;;;;;;;4.53;2.30;;;;;;;21.94;44.71;64268.25;5026283;28;20225;-75
2022/09/14 10:00:20;;;;;;;4.13;2.70;;;;;;;22.13;44.91;64287.56;5025829;28;20217;-75
2022/09/14 10:02:48;;;;;;;3.78;2.30;;;;;;;22.14;44.59;64289.13;5026832;28;20487;-76
2022/09/14 10:05:22;;;;;;;2.92;2.72;;;;;;;22.34;44.43;64310.03;5026750;28;20395;-75
2022/09/14 10:07:59;;;;;;;3.58;2.70;;;;;;;22.35;43.83;64311.09;5025948;28;20190;-75
2022/09/14 10:10:41;;;;;;;3.47;2.58;;;;;;;22.57;44.72;64338.78;5025588;28;20435;-75
2022/09/14 10:13:20;;;;;;;4.22;2.50;;;;;;;22.53;45.08;64329.38;5026028;28;20187;-73
2022/09/14 10:15:47;;;;;;;2.88;2.60;;;;;;;22.76;44.90;64350.84;5026567;28;20241;-75
2022/09/14 10:18:19;;;;;;;3.08;2.88;;;;;;;22.93;44.30;64376.44;5025400;28;20237;-75
2022/09/14 10:21:07;;;;;;;2.92;2.72;;;;;;;22.92;44.38;64374.84;5025669;28;20218;-74
2022/09/14 10:23:36;;;;;;;3.30;2.78;;;;;;;23.06;44.59;64386.88;5026530;28;20221;-76
2022/09/14 10:26:36;;;;;;;2.85;2.63;;;;;;;23.32;43.09;64412.03;5025744;28;20222;-75
2022/09/14 10:29:27;;;;;;;4.18;2.80;;;;;;;23.45;43.57;64427.72;4946258;29;20193;-74
2022/09/14 10:32:01;;;;;;;3.13;2.35;;;;;;;23.62;43.72;64443.44;5002982;28;20226;-77
2022/09/14 10:34:29;;;;;;;2.92;2.63;;;;;;;23.65;42.27;64446.03;5006228;28;20190;-73
2022/09/14 10:37:10;;;;;;;2.40;2.30;;;;;;;23.33;41.42;64418.28;5005833;28;20274;-76
2022/09/14 10:39:44;;;;;;;6.43;2.58;;;;;;;23.23;41.59;64405.19;5006405;28;20187;-78
2022/09/14 10:42:18;;;;;;;4.35;2.70;;;;;;;23.37;42.53;64419.84;5006789;28;20278;-76
2022/09/14 10:45:04;;;;;;;3.45;3.13;;;;;;;23.41;42.33;64424.06;5006165;28;20261;-78
2022/09/14 10:48:01;;;;;;;4.28;2.20;;;;;;;23.55;41.58;64438.16;5005860;28;20317;-74
2022/09/14 10:50:41;;;;;;;3.30;2.30;;;;;;;23.52;40.75;64435.03;4967272;28;20410;-75
2022/09/14 10:53:23;;;;;;;2.28;2.17;;;;;;;23.62;41.73;64442.91;5005814;28;20199;-74
2022/09/14 10:56:00;;;;;;;3.97;2.30;;;;;;;23.86;40.51;64473.75;5005332;28;20406;-74
2022/09/14 10:58:54;;;;;;;3.10;2.20;;;;;;;24.15;41.37;64495.78;5005563;28;20218;-75
2022/09/14 11:01:34;;;;;;;3.03;2.58;;;;;;;24.39;40.32;64526.09;5005313;28;20223;-73
2022/09/14 11:04:31;;;;;;;3.60;2.40;;;;;;;24.46;39.35;64532.91;5005813;28;20373;-74
2022/09/14 11:07:08;;;;;;;6.68;2.25;;;;;;;24.68;40.54;64558.53;5005353;28;20233;-75
2022/09/14 11:09:45;;;;;;;2.67;2.47;;;;;;;24.64;38.25;64552.28;5005657;28;20212;-73
2022/09/14 11:12:18;;;;;;;4.65;2.15;;;;;;;24.59;37.92;64546.53;5005518;28;20220;-75
2022/09/14 11:15:01;;;;;;;4.60;2.53;;;;;;;24.57;37.80;64544.44;5006185;28;20187;-74
2022/09/14 11:17:59;;;;;;;6.28;2.50;;;;;;;24.61;37.13;64546.03;5005292;28;20259;-74
2022/09/14 11:20:37;;;;;;;3.78;2.40;;;;;;;24.60;37.01;64548.09;5004029;28;20219;-74
2022/09/14 11:23:15;;;;;;;4.53;3.28;;;;;;;24.26;38.41;64512.50;5005934;28;20199;-73
2022/09/14 11:25:48;;;;;;;2.25;2.15;;;;;;;24.16;38.02;64499.41;5004747;28;20252;-74
2022/09/14 11:28:19;;;;;;;6.57;2.70;;;;;;;24.19;38.00;64499.44;5006157;28;20269;-74
2022/09/14 11:30:53;;;;;;;2.85;2.63;;;;;;;24.32;37.72;64516.16;5014892;28;20245;-73
2022/09/14 11:33:23;;;;;;;3.15;2.53;;;;;;;24.47;36.88;64534.47;5026627;28;20210;-74
2022/09/14 11:35:55;;;;;;;3.60;2.10;;;;;;;24.53;36.40;64540.78;5025467;28;20232;-73
2022/09/14 11:38:28;;;;;;;2.42;2.33;;;;;;;24.65;36.36;64553.34;5025935;28;20249;-74
2022/09/14 11:41:01;;;;;;;4.10;2.58;;;;;;;24.84;38.49;64573.25;5028535;28;20393;-74
2022/09/14 11:43:37;;;;;;;2.75;2.40;;;;;;;24.69;36.10;64557.53;5028459;28;20194;-75
2022/09/14 11:46:08;;;;;;;3.60;2.15;;;;;;;24.91;37.83;64574.84;5029110;28;20220;-74